sensor_id;sensor_type;location;lat;lon;timestamp;P1;durP1;ratioP1;P2;durP2;ratioP2
16450;SDS011;12243;42.708;23.310;2023-05-10T00:01:34;5.57;;;5.07;;
16450;SDS011;12243;42.708;23.310;2023-05-10T00:04:01;5.47;;;5.10;;
16450;SDS011;12243;42.708;23.310;2023-05-10T00:06:28;6.00;;;5.60;;
16450;SDS011;12243;42.708;23.310;2023-05-10T00:08:56;7.00;;;6.40;;
16450;SDS011;12243;42.708;23.310;2023-05-10T00:11:23;6.77;;;6.27;;
16450;SDS011;12243;42.708;23.310;2023-05-10T00:13:50;7.97;;;7.23;;
16450;SDS011;12243;42.708;23.310;2023-05-10T00:16:17;8.70;;;7.90;;
16450;SDS011;12243;42.708;23.310;2023-05-10T00:18:44;9.93;;;9.03;;
16450;SDS011;12243;42.708;23.310;2023-05-10T00:21:11;10.47;;;9.43;;
16450;SDS011;12243;42.708;23.310;2023-05-10T00:23:37;10.70;;;9.70;;
16450;SDS011;12243;42.708;23.310;2023-05-10T00:26:06;11.17;;;10.17;;
16450;SDS011;12243;42.708;23.310;2023-05-10T00:28:33;11.13;;;9.97;;
16450;SDS011;12243;42.708;23.310;2023-05-10T00:31:00;10.57;;;9.60;;
16450;SDS011;12243;42.708;23.310;2023-05-10T00:33:28;11.17;;;10.17;;
16450;SDS011;12243;42.708;23.310;2023-05-10T00:35:55;11.07;;;9.97;;
16450;SDS011;12243;42.708;23.310;2023-05-10T00:38:22;10.53;;;9.53;;
16450;SDS011;12243;42.708;23.310;2023-05-10T00:40:49;11.17;;;10.13;;
16450;SDS011;12243;42.708;23.310;2023-05-10T00:43:26;11.20;;;10.03;;
16450;SDS011;12243;42.708;23.310;2023-05-10T00:45:53;10.07;;;9.27;;
16450;SDS011;12243;42.708;23.310;2023-05-10T00:48:20;10.83;;;9.93;;
16450;SDS011;12243;42.708;23.310;2023-05-10T00:50:48;10.53;;;9.73;;
16450;SDS011;12243;42.708;23.310;2023-05-10T00:53:15;11.10;;;10.00;;
16450;SDS011;12243;42.708;23.310;2023-05-10T00:55:42;11.87;;;10.77;;
16450;SDS011;12243;42.708;23.310;2023-05-10T00:58:10;11.17;;;10.27;;
16450;SDS011;12243;42.708;23.310;2023-05-10T01:00:39;12.67;;;11.57;;
16450;SDS011;12243;42.708;23.310;2023-05-10T01:03:09;11.50;;;10.50;;
16450;SDS011;12243;42.708;23.310;2023-05-10T01:05:42;12.50;;;11.40;;
16450;SDS011;12243;42.708;23.310;2023-05-10T01:08:09;11.53;;;10.57;;
16450;SDS011;12243;42.708;23.310;2023-05-10T01:10:36;12.00;;;11.00;;
16450;SDS011;12243;42.708;23.310;2023-05-10T01:13:03;11.80;;;10.80;;
16450;SDS011;12243;42.708;23.310;2023-05-10T01:15:30;11.60;;;10.47;;
16450;SDS011;12243;42.708;23.310;2023-05-10T01:17:59;11.87;;;10.73;;
16450;SDS011;12243;42.708;23.310;2023-05-10T01:20:27;10.63;;;9.67;;
16450;SDS011;12243;42.708;23.310;2023-05-10T01:23:10;11.30;;;10.20;;
16450;SDS011;12243;42.708;23.310;2023-05-10T01:26:05;10.47;;;9.37;;
16450;SDS011;12243;42.708;23.310;2023-05-10T01:28:57;10.03;;;9.23;;
16450;SDS011;12243;42.708;23.310;2023-05-10T01:34:54;9.57;;;8.73;;
16450;SDS011;12243;42.708;23.310;2023-05-10T01:37:28;9.37;;;8.67;;
16450;SDS011;12243;42.708;23.310;2023-05-10T01:40:04;7.10;;;6.60;;
16450;SDS011;12243;42.708;23.310;2023-05-10T01:42:36;8.87;;;8.17;;
16450;SDS011;12243;42.708;23.310;2023-05-10T01:45:13;8.87;;;8.17;;
16450;SDS011;12243;42.708;23.310;2023-05-10T01:47:45;8.57;;;7.77;;
16450;SDS011;12243;42.708;23.310;2023-05-10T01:50:18;9.00;;;8.20;;
16450;SDS011;12243;42.708;23.310;2023-05-10T01:52:53;8.53;;;7.83;;
16450;SDS011;12243;42.708;23.310;2023-05-10T01:55:22;8.27;;;7.67;;
16450;SDS011;12243;42.708;23.310;2023-05-10T01:57:56;8.00;;;7.40;;
16450;SDS011;12243;42.708;23.310;2023-05-10T02:00:28;8.13;;;7.47;;
16450;SDS011;12243;42.708;23.310;2023-05-10T02:02:56;7.60;;;7.03;;
16450;SDS011;12243;42.708;23.310;2023-05-10T02:05:25;8.03;;;7.30;;
16450;SDS011;12243;42.708;23.310;2023-05-10T02:07:55;7.73;;;7.20;;
16450;SDS011;12243;42.708;23.310;2023-05-10T02:10:25;6.33;;;5.93;;
16450;SDS011;12243;42.708;23.310;2023-05-10T02:12:53;7.30;;;6.63;;
16450;SDS011;12243;42.708;23.310;2023-05-10T02:15:24;7.20;;;6.60;;
16450;SDS011;12243;42.708;23.310;2023-05-10T02:17:54;7.07;;;6.47;;
16450;SDS011;12243;42.708;23.310;2023-05-10T02:20:22;9.30;;;7.67;;
16450;SDS011;12243;42.708;23.310;2023-05-10T02:22:52;11.83;;;10.63;;
16450;SDS011;12243;42.708;23.310;2023-05-10T02:25:21;26.43;;;18.57;;
16450;SDS011;12243;42.708;23.310;2023-05-10T02:27:49;26.77;;;17.47;;
16450;SDS011;12243;42.708;23.310;2023-05-10T02:30:20;18.47;;;14.30;;
16450;SDS011;12243;42.708;23.310;2023-05-10T02:32:49;7.73;;;7.00;;
16450;SDS011;12243;42.708;23.310;2023-05-10T02:35:17;7.10;;;6.50;;
16450;SDS011;12243;42.708;23.310;2023-05-10T02:37:44;7.80;;;6.50;;
16450;SDS011;12243;42.708;23.310;2023-05-10T02:40:14;7.60;;;5.60;;
16450;SDS011;12243;42.708;23.310;2023-05-10T02:42:43;6.33;;;5.93;;
16450;SDS011;12243;42.708;23.310;2023-05-10T02:45:12;5.77;;;5.37;;
16450;SDS011;12243;42.708;23.310;2023-05-10T02:47:43;6.17;;;5.67;;
16450;SDS011;12243;42.708;23.310;2023-05-10T02:50:10;5.90;;;5.40;;
16450;SDS011;12243;42.708;23.310;2023-05-10T02:52:39;7.17;;;5.60;;
16450;SDS011;12243;42.708;23.310;2023-05-10T02:55:09;5.23;;;4.83;;
16450;SDS011;12243;42.708;23.310;2023-05-10T02:57:40;5.27;;;4.87;;
16450;SDS011;12243;42.708;23.310;2023-05-10T03:00:12;6.47;;;5.00;;
16450;SDS011;12243;42.708;23.310;2023-05-10T03:02:39;5.43;;;5.03;;
16450;SDS011;12243;42.708;23.310;2023-05-10T03:05:06;6.93;;;5.60;;
16450;SDS011;12243;42.708;23.310;2023-05-10T03:07:34;5.43;;;4.97;;
16450;SDS011;12243;42.708;23.310;2023-05-10T03:10:02;6.13;;;5.63;;
16450;SDS011;12243;42.708;23.310;2023-05-10T03:12:32;5.90;;;5.37;;
16450;SDS011;12243;42.708;23.310;2023-05-10T03:15:11;6.37;;;5.87;;
16450;SDS011;12243;42.708;23.310;2023-05-10T03:17:45;6.37;;;5.87;;
16450;SDS011;12243;42.708;23.310;2023-05-10T03:20:20;6.37;;;5.87;;
16450;SDS011;12243;42.708;23.310;2023-05-10T03:22:51;5.80;;;5.23;;
16450;SDS011;12243;42.708;23.310;2023-05-10T03:25:22;6.37;;;5.77;;
16450;SDS011;12243;42.708;23.310;2023-05-10T03:27:52;6.67;;;5.87;;
16450;SDS011;12243;42.708;23.310;2023-05-10T03:30:21;10.23;;;6.77;;
16450;SDS011;12243;42.708;23.310;2023-05-10T03:32:48;8.13;;;6.30;;
16450;SDS011;12243;42.708;23.310;2023-05-10T03:35:16;7.17;;;5.80;;
16450;SDS011;12243;42.708;23.310;2023-05-10T03:37:43;7.87;;;6.10;;
16450;SDS011;12243;42.708;23.310;2023-05-10T03:40:11;7.00;;;6.27;;
16450;SDS011;12243;42.708;23.310;2023-05-10T03:42:40;9.60;;;6.27;;
16450;SDS011;12243;42.708;23.310;2023-05-10T03:45:08;8.83;;;6.50;;
16450;SDS011;12243;42.708;23.310;2023-05-10T03:47:38;6.57;;;5.87;;
16450;SDS011;12243;42.708;23.310;2023-05-10T03:50:06;8.93;;;6.13;;
16450;SDS011;12243;42.708;23.310;2023-05-10T03:52:33;6.37;;;5.87;;
16450;SDS011;12243;42.708;23.310;2023-05-10T03:55:00;6.30;;;5.70;;
16450;SDS011;12243;42.708;23.310;2023-05-10T03:57:28;6.97;;;6.37;;
16450;SDS011;12243;42.708;23.310;2023-05-10T03:59:55;7.07;;;6.30;;
16450;SDS011;12243;42.708;23.310;2023-05-10T04:02:22;8.57;;;5.73;;
16450;SDS011;12243;42.708;23.310;2023-05-10T04:04:51;5.77;;;5.27;;
16450;SDS011;12243;42.708;23.310;2023-05-10T04:07:18;8.83;;;5.93;;
16450;SDS011;12243;42.708;23.310;2023-05-10T04:09:45;9.90;;;5.53;;
16450;SDS011;12243;42.708;23.310;2023-05-10T04:12:12;6.67;;;5.97;;
16450;SDS011;12243;42.708;23.310;2023-05-10T04:14:39;6.33;;;5.70;;
16450;SDS011;12243;42.708;23.310;2023-05-10T04:17:06;6.23;;;5.73;;
16450;SDS011;12243;42.708;23.310;2023-05-10T04:19:32;7.33;;;5.67;;
16450;SDS011;12243;42.708;23.310;2023-05-10T04:22:01;6.57;;;5.90;;
16450;SDS011;12243;42.708;23.310;2023-05-10T04:24:28;6.60;;;5.70;;
16450;SDS011;12243;42.708;23.310;2023-05-10T04:26:55;5.67;;;5.10;;
16450;SDS011;12243;42.708;23.310;2023-05-10T04:29:22;6.30;;;5.80;;
16450;SDS011;12243;42.708;23.310;2023-05-10T04:31:49;8.33;;;5.47;;
16450;SDS011;12243;42.708;23.310;2023-05-10T04:34:16;6.30;;;5.70;;
16450;SDS011;12243;42.708;23.310;2023-05-10T04:36:43;6.00;;;5.37;;
16450;SDS011;12243;42.708;23.310;2023-05-10T04:39:12;7.80;;;6.00;;
16450;SDS011;12243;42.708;23.310;2023-05-10T04:41:39;6.60;;;5.67;;
16450;SDS011;12243;42.708;23.310;2023-05-10T04:44:06;6.93;;;6.23;;
16450;SDS011;12243;42.708;23.310;2023-05-10T04:46:32;6.50;;;6.00;;
16450;SDS011;12243;42.708;23.310;2023-05-10T04:48:59;8.33;;;6.50;;
16450;SDS011;12243;42.708;23.310;2023-05-10T04:51:26;7.50;;;6.80;;
16450;SDS011;12243;42.708;23.310;2023-05-10T04:53:53;7.77;;;7.03;;
16450;SDS011;12243;42.708;23.310;2023-05-10T04:56:22;10.97;;;8.33;;
16450;SDS011;12243;42.708;23.310;2023-05-10T04:58:48;10.57;;;7.40;;
16450;SDS011;12243;42.708;23.310;2023-05-10T05:01:15;6.87;;;6.27;;
16450;SDS011;12243;42.708;23.310;2023-05-10T05:03:42;6.90;;;6.27;;
16450;SDS011;12243;42.708;23.310;2023-05-10T05:06:09;6.80;;;6.20;;
16450;SDS011;12243;42.708;23.310;2023-05-10T05:08:36;7.57;;;6.87;;
16450;SDS011;12243;42.708;23.310;2023-05-10T05:11:03;8.30;;;7.50;;
16450;SDS011;12243;42.708;23.310;2023-05-10T05:13:31;7.50;;;6.80;;
16450;SDS011;12243;42.708;23.310;2023-05-10T05:16:00;8.87;;;7.43;;
16450;SDS011;12243;42.708;23.310;2023-05-10T05:18:27;8.53;;;7.73;;
16450;SDS011;12243;42.708;23.310;2023-05-10T05:20:54;7.77;;;6.87;;
16450;SDS011;12243;42.708;23.310;2023-05-10T05:23:21;7.37;;;6.53;;
16450;SDS011;12243;42.708;23.310;2023-05-10T05:25:50;7.37;;;6.60;;
16450;SDS011;12243;42.708;23.310;2023-05-10T05:28:18;8.77;;;7.30;;
16450;SDS011;12243;42.708;23.310;2023-05-10T05:30:46;7.60;;;7.00;;
16450;SDS011;12243;42.708;23.310;2023-05-10T05:33:13;9.20;;;7.10;;
16450;SDS011;12243;42.708;23.310;2023-05-10T05:35:40;8.40;;;7.50;;
16450;SDS011;12243;42.708;23.310;2023-05-10T05:38:08;7.37;;;6.67;;
16450;SDS011;12243;42.708;23.310;2023-05-10T05:40:35;7.33;;;6.63;;
16450;SDS011;12243;42.708;23.310;2023-05-10T05:43:02;10.00;;;7.97;;
16450;SDS011;12243;42.708;23.310;2023-05-10T05:45:29;15.87;;;9.47;;
16450;SDS011;12243;42.708;23.310;2023-05-10T05:47:57;10.57;;;7.73;;
16450;SDS011;12243;42.708;23.310;2023-05-10T05:50:24;13.73;;;7.43;;
16450;SDS011;12243;42.708;23.310;2023-05-10T05:52:51;8.20;;;7.47;;
16450;SDS011;12243;42.708;23.310;2023-05-10T05:55:18;8.33;;;7.53;;
16450;SDS011;12243;42.708;23.310;2023-05-10T05:57:46;7.80;;;6.33;;
16450;SDS011;12243;42.708;23.310;2023-05-10T06:00:13;8.80;;;7.97;;
16450;SDS011;12243;42.708;23.310;2023-05-10T06:02:40;7.87;;;7.10;;
16450;SDS011;12243;42.708;23.310;2023-05-10T06:05:09;8.20;;;7.40;;
16450;SDS011;12243;42.708;23.310;2023-05-10T06:07:36;8.10;;;7.37;;
16450;SDS011;12243;42.708;23.310;2023-05-10T06:10:05;8.10;;;7.30;;
16450;SDS011;12243;42.708;23.310;2023-05-10T06:12:36;9.37;;;7.13;;
16450;SDS011;12243;42.708;23.310;2023-05-10T06:15:04;10.00;;;7.27;;
16450;SDS011;12243;42.708;23.310;2023-05-10T06:17:31;8.17;;;7.47;;
16450;SDS011;12243;42.708;23.310;2023-05-10T06:19:58;9.43;;;7.97;;
16450;SDS011;12243;42.708;23.310;2023-05-10T06:22:27;7.90;;;7.10;;
16450;SDS011;12243;42.708;23.310;2023-05-10T06:24:54;12.73;;;7.47;;
16450;SDS011;12243;42.708;23.310;2023-05-10T06:27:20;8.57;;;7.00;;
16450;SDS011;12243;42.708;23.310;2023-05-10T06:29:48;8.43;;;7.50;;
16450;SDS011;12243;42.708;23.310;2023-05-10T06:32:15;10.43;;;7.20;;
16450;SDS011;12243;42.708;23.310;2023-05-10T06:34:42;11.50;;;7.33;;
16450;SDS011;12243;42.708;23.310;2023-05-10T06:37:09;7.57;;;6.73;;
16450;SDS011;12243;42.708;23.310;2023-05-10T06:39:38;8.97;;;7.30;;
16450;SDS011;12243;42.708;23.310;2023-05-10T06:42:05;8.20;;;7.50;;
16450;SDS011;12243;42.708;23.310;2023-05-10T06:44:32;10.03;;;7.07;;
16450;SDS011;12243;42.708;23.310;2023-05-10T06:46:59;9.53;;;7.37;;
16450;SDS011;12243;42.708;23.310;2023-05-10T06:49:25;9.00;;;7.23;;
16450;SDS011;12243;42.708;23.310;2023-05-10T06:51:52;9.73;;;6.63;;
16450;SDS011;12243;42.708;23.310;2023-05-10T06:54:20;7.00;;;6.40;;
16450;SDS011;12243;42.708;23.310;2023-05-10T06:56:49;8.27;;;7.47;;
16450;SDS011;12243;42.708;23.310;2023-05-10T06:59:17;10.23;;;6.93;;
16450;SDS011;12243;42.708;23.310;2023-05-10T07:01:44;7.93;;;6.23;;
16450;SDS011;12243;42.708;23.310;2023-05-10T07:04:11;7.37;;;6.50;;
16450;SDS011;12243;42.708;23.310;2023-05-10T07:06:38;7.87;;;6.77;;
16450;SDS011;12243;42.708;23.310;2023-05-10T07:09:05;7.30;;;6.50;;
16450;SDS011;12243;42.708;23.310;2023-05-10T07:11:32;7.33;;;6.63;;
16450;SDS011;12243;42.708;23.310;2023-05-10T07:14:03;8.40;;;5.83;;
16450;SDS011;12243;42.708;23.310;2023-05-10T07:16:30;9.57;;;6.63;;
16450;SDS011;12243;42.708;23.310;2023-05-10T07:18:57;7.43;;;6.33;;
16450;SDS011;12243;42.708;23.310;2023-05-10T07:21:24;7.83;;;6.20;;
16450;SDS011;12243;42.708;23.310;2023-05-10T07:23:53;7.10;;;6.40;;
16450;SDS011;12243;42.708;23.310;2023-05-10T07:26:20;10.77;;;6.53;;
16450;SDS011;12243;42.708;23.310;2023-05-10T07:28:47;7.77;;;6.30;;
16450;SDS011;12243;42.708;23.310;2023-05-10T07:31:15;7.47;;;6.53;;
16450;SDS011;12243;42.708;23.310;2023-05-10T07:33:42;6.57;;;5.97;;
16450;SDS011;12243;42.708;23.310;2023-05-10T07:36:09;7.57;;;5.97;;
16450;SDS011;12243;42.708;23.310;2023-05-10T07:38:36;7.23;;;6.60;;
16450;SDS011;12243;42.708;23.310;2023-05-10T07:41:03;23.03;;;12.07;;
16450;SDS011;12243;42.708;23.310;2023-05-10T07:43:29;8.67;;;7.60;;
16450;SDS011;12243;42.708;23.310;2023-05-10T07:45:57;8.83;;;7.60;;
16450;SDS011;12243;42.708;23.310;2023-05-10T07:48:26;11.10;;;8.27;;
16450;SDS011;12243;42.708;23.310;2023-05-10T07:50:53;8.93;;;8.07;;
16450;SDS011;12243;42.708;23.310;2023-05-10T07:53:20;8.37;;;7.57;;
16450;SDS011;12243;42.708;23.310;2023-05-10T07:55:49;10.40;;;9.40;;
16450;SDS011;12243;42.708;23.310;2023-05-10T07:58:16;8.40;;;7.57;;
16450;SDS011;12243;42.708;23.310;2023-05-10T08:00:43;9.40;;;8.50;;
16450;SDS011;12243;42.708;23.310;2023-05-10T08:03:10;8.80;;;8.03;;
16450;SDS011;12243;42.708;23.310;2023-05-10T08:05:38;10.47;;;9.33;;
16450;SDS011;12243;42.708;23.310;2023-05-10T08:08:05;8.77;;;7.87;;
16450;SDS011;12243;42.708;23.310;2023-05-10T08:10:32;10.00;;;9.07;;
16450;SDS011;12243;42.708;23.310;2023-05-10T08:12:59;10.03;;;8.63;;
16450;SDS011;12243;42.708;23.310;2023-05-10T08:15:26;9.80;;;8.40;;
16450;SDS011;12243;42.708;23.310;2023-05-10T08:17:53;8.93;;;7.40;;
16450;SDS011;12243;42.708;23.310;2023-05-10T08:20:20;8.70;;;7.83;;
16450;SDS011;12243;42.708;23.310;2023-05-10T08:22:49;8.97;;;8.07;;
16450;SDS011;12243;42.708;23.310;2023-05-10T08:25:16;11.27;;;8.67;;
16450;SDS011;12243;42.708;23.310;2023-05-10T08:27:43;12.97;;;8.97;;
16450;SDS011;12243;42.708;23.310;2023-05-10T08:30:10;12.20;;;8.63;;
16450;SDS011;12243;42.708;23.310;2023-05-10T08:32:38;7.87;;;6.93;;
16450;SDS011;12243;42.708;23.310;2023-05-10T08:35:05;7.83;;;7.23;;
16450;SDS011;12243;42.708;23.310;2023-05-10T08:37:32;10.43;;;8.07;;
16450;SDS011;12243;42.708;23.310;2023-05-10T08:40:00;11.07;;;8.40;;
16450;SDS011;12243;42.708;23.310;2023-05-10T08:42:28;11.83;;;9.53;;
16450;SDS011;12243;42.708;23.310;2023-05-10T08:44:57;12.70;;;10.87;;
16450;SDS011;12243;42.708;23.310;2023-05-10T08:47:25;11.17;;;10.17;;
16450;SDS011;12243;42.708;23.310;2023-05-10T08:49:53;12.17;;;10.97;;
16450;SDS011;12243;42.708;23.310;2023-05-10T08:52:21;10.57;;;9.50;;
16450;SDS011;12243;42.708;23.310;2023-05-10T08:54:51;9.70;;;8.70;;
16450;SDS011;12243;42.708;23.310;2023-05-10T08:57:20;7.90;;;7.30;;
16450;SDS011;12243;42.708;23.310;2023-05-10T08:59:47;8.80;;;7.10;;
16450;SDS011;12243;42.708;23.310;2023-05-10T09:02:14;9.17;;;7.97;;
16450;SDS011;12243;42.708;23.310;2023-05-10T09:04:41;9.60;;;8.80;;
16450;SDS011;12243;42.708;23.310;2023-05-10T09:07:08;9.07;;;8.17;;
16450;SDS011;12243;42.708;23.310;2023-05-10T09:09:37;7.73;;;6.80;;
16450;SDS011;12243;42.708;23.310;2023-05-10T09:12:04;8.97;;;8.17;;
16450;SDS011;12243;42.708;23.310;2023-05-10T09:14:34;8.53;;;7.83;;
16450;SDS011;12243;42.708;23.310;2023-05-10T09:17:02;11.47;;;9.20;;
16450;SDS011;12243;42.708;23.310;2023-05-10T09:19:29;9.83;;;8.83;;
16450;SDS011;12243;42.708;23.310;2023-05-10T09:21:56;10.67;;;8.43;;
16450;SDS011;12243;42.708;23.310;2023-05-10T09:24:25;9.17;;;8.23;;
16450;SDS011;12243;42.708;23.310;2023-05-10T09:26:52;8.53;;;7.63;;
16450;SDS011;12243;42.708;23.310;2023-05-10T09:29:19;19.40;;;9.20;;
16450;SDS011;12243;42.708;23.310;2023-05-10T09:31:48;9.77;;;7.93;;
16450;SDS011;12243;42.708;23.310;2023-05-10T09:34:20;12.23;;;8.93;;
16450;SDS011;12243;42.708;23.310;2023-05-10T09:36:55;14.20;;;9.07;;
16450;SDS011;12243;42.708;23.310;2023-05-10T09:39:31;11.33;;;8.80;;
16450;SDS011;12243;42.708;23.310;2023-05-10T09:41:59;17.80;;;9.97;;
16450;SDS011;12243;42.708;23.310;2023-05-10T09:44:30;13.60;;;8.30;;
16450;SDS011;12243;42.708;23.310;2023-05-10T09:47:00;10.37;;;8.50;;
16450;SDS011;12243;42.708;23.310;2023-05-10T09:49:29;13.53;;;8.67;;
16450;SDS011;12243;42.708;23.310;2023-05-10T09:52:02;16.03;;;9.00;;
16450;SDS011;12243;42.708;23.310;2023-05-10T09:54:31;10.67;;;9.57;;
16450;SDS011;12243;42.708;23.310;2023-05-10T09:56:58;8.40;;;7.60;;
16450;SDS011;12243;42.708;23.310;2023-05-10T09:59:26;8.63;;;6.83;;
16450;SDS011;12243;42.708;23.310;2023-05-10T10:01:55;6.77;;;6.13;;
16450;SDS011;12243;42.708;23.310;2023-05-10T10:04:25;10.23;;;6.90;;
16450;SDS011;12243;42.708;23.310;2023-05-10T10:07:02;8.83;;;7.40;;
16450;SDS011;12243;42.708;23.310;2023-05-10T10:09:31;8.17;;;6.33;;
16450;SDS011;12243;42.708;23.310;2023-05-10T10:11:58;9.93;;;7.20;;
16450;SDS011;12243;42.708;23.310;2023-05-10T10:14:25;9.27;;;7.13;;
16450;SDS011;12243;42.708;23.310;2023-05-10T10:16:52;10.00;;;7.27;;
16450;SDS011;12243;42.708;23.310;2023-05-10T10:19:20;9.03;;;7.00;;
16450;SDS011;12243;42.708;23.310;2023-05-10T10:21:49;6.60;;;5.90;;
16450;SDS011;12243;42.708;23.310;2023-05-10T10:24:16;7.93;;;6.20;;
16450;SDS011;12243;42.708;23.310;2023-05-10T10:26:43;11.73;;;7.57;;
16450;SDS011;12243;42.708;23.310;2023-05-10T10:29:18;10.23;;;7.00;;
16450;SDS011;12243;42.708;23.310;2023-05-10T10:31:51;8.17;;;7.30;;
16450;SDS011;12243;42.708;23.310;2023-05-10T10:34:25;10.83;;;7.60;;
16450;SDS011;12243;42.708;23.310;2023-05-10T10:36:55;8.80;;;7.87;;
16450;SDS011;12243;42.708;23.310;2023-05-10T10:39:24;10.90;;;7.50;;
16450;SDS011;12243;42.708;23.310;2023-05-10T10:41:52;7.73;;;6.77;;
16450;SDS011;12243;42.708;23.310;2023-05-10T10:44:23;8.77;;;6.60;;
16450;SDS011;12243;42.708;23.310;2023-05-10T10:47:02;7.63;;;6.27;;
16450;SDS011;12243;42.708;23.310;2023-05-10T10:50:02;6.67;;;6.10;;
16450;SDS011;12243;42.708;23.310;2023-05-10T10:52:32;8.87;;;7.77;;
16450;SDS011;12243;42.708;23.310;2023-05-10T10:55:01;6.87;;;6.23;;
16450;SDS011;12243;42.708;23.310;2023-05-10T10:57:31;9.23;;;6.33;;
16450;SDS011;12243;42.708;23.310;2023-05-10T11:00:18;17.27;;;8.73;;
16450;SDS011;12243;42.708;23.310;2023-05-10T11:02:53;6.27;;;5.67;;
16450;SDS011;12243;42.708;23.310;2023-05-10T11:05:25;8.67;;;6.47;;
16450;SDS011;12243;42.708;23.310;2023-05-10T11:08:08;6.70;;;5.93;;
16450;SDS011;12243;42.708;23.310;2023-05-10T11:10:36;6.97;;;5.60;;
16450;SDS011;12243;42.708;23.310;2023-05-10T11:13:04;8.57;;;6.27;;
16450;SDS011;12243;42.708;23.310;2023-05-10T11:15:32;6.93;;;6.33;;
16450;SDS011;12243;42.708;23.310;2023-05-10T11:18:01;6.27;;;5.87;;
16450;SDS011;12243;42.708;23.310;2023-05-10T11:20:44;6.30;;;5.80;;
16450;SDS011;12243;42.708;23.310;2023-05-10T11:23:17;6.80;;;5.97;;
16450;SDS011;12243;42.708;23.310;2023-05-10T11:25:46;5.80;;;5.30;;
16450;SDS011;12243;42.708;23.310;2023-05-10T11:28:16;6.97;;;5.60;;
16450;SDS011;12243;42.708;23.310;2023-05-10T11:30:44;5.93;;;5.33;;
16450;SDS011;12243;42.708;23.310;2023-05-10T11:33:14;5.80;;;5.30;;
16450;SDS011;12243;42.708;23.310;2023-05-10T11:35:43;9.90;;;6.07;;
16450;SDS011;12243;42.708;23.310;2023-05-10T11:38:10;7.87;;;6.23;;
16450;SDS011;12243;42.708;23.310;2023-05-10T11:40:39;8.20;;;5.70;;
16450;SDS011;12243;42.708;23.310;2023-05-10T11:43:08;6.73;;;6.03;;
16450;SDS011;12243;42.708;23.310;2023-05-10T11:45:36;7.53;;;6.10;;
16450;SDS011;12243;42.708;23.310;2023-05-10T11:48:03;6.83;;;6.13;;
16450;SDS011;12243;42.708;23.310;2023-05-10T11:50:31;7.97;;;5.97;;
16450;SDS011;12243;42.708;23.310;2023-05-10T11:52:58;6.23;;;5.67;;
16450;SDS011;12243;42.708;23.310;2023-05-10T11:55:25;6.50;;;5.87;;
16450;SDS011;12243;42.708;23.310;2023-05-10T11:57:53;6.60;;;5.43;;
16450;SDS011;12243;42.708;23.310;2023-05-10T12:00:21;6.30;;;5.80;;
16450;SDS011;12243;42.708;23.310;2023-05-10T12:02:48;6.37;;;5.80;;
16450;SDS011;12243;42.708;23.310;2023-05-10T12:05:15;10.10;;;5.93;;
16450;SDS011;12243;42.708;23.310;2023-05-10T12:07:42;10.07;;;6.57;;
16450;SDS011;12243;42.708;23.310;2023-05-10T12:10:10;6.93;;;6.23;;
16450;SDS011;12243;42.708;23.310;2023-05-10T12:12:40;6.87;;;6.27;;
16450;SDS011;12243;42.708;23.310;2023-05-10T12:15:16;8.90;;;6.00;;
16450;SDS011;12243;42.708;23.310;2023-05-10T12:17:45;9.97;;;6.70;;
16450;SDS011;12243;42.708;23.310;2023-05-10T12:20:13;7.77;;;6.30;;
16450;SDS011;12243;42.708;23.310;2023-05-10T12:22:41;7.30;;;6.50;;
16450;SDS011;12243;42.708;23.310;2023-05-10T12:25:10;6.90;;;6.20;;
16450;SDS011;12243;42.708;23.310;2023-05-10T12:27:37;7.73;;;6.93;;
16450;SDS011;12243;42.708;23.310;2023-05-10T12:30:05;9.10;;;7.17;;
16450;SDS011;12243;42.708;23.310;2023-05-10T12:32:41;8.50;;;7.23;;
16450;SDS011;12243;42.708;23.310;2023-05-10T12:35:08;7.90;;;7.10;;
16450;SDS011;12243;42.708;23.310;2023-05-10T12:37:35;9.13;;;7.33;;
16450;SDS011;12243;42.708;23.310;2023-05-10T12:40:08;7.00;;;6.30;;
16450;SDS011;12243;42.708;23.310;2023-05-10T12:42:36;11.00;;;7.50;;
16450;SDS011;12243;42.708;23.310;2023-05-10T12:45:04;7.77;;;6.70;;
16450;SDS011;12243;42.708;23.310;2023-05-10T12:47:32;7.90;;;6.43;;
16450;SDS011;12243;42.708;23.310;2023-05-10T12:50:01;7.50;;;6.90;;
16450;SDS011;12243;42.708;23.310;2023-05-10T12:52:29;7.30;;;6.60;;
16450;SDS011;12243;42.708;23.310;2023-05-10T12:54:57;7.47;;;6.73;;
16450;SDS011;12243;42.708;23.310;2023-05-10T12:57:24;12.97;;;7.03;;
16450;SDS011;12243;42.708;23.310;2023-05-10T12:59:52;7.80;;;7.00;;
16450;SDS011;12243;42.708;23.310;2023-05-10T13:02:19;8.43;;;7.13;;
16450;SDS011;12243;42.708;23.310;2023-05-10T13:04:46;7.53;;;6.80;;
16450;SDS011;12243;42.708;23.310;2023-05-10T13:07:14;8.73;;;6.57;;
16450;SDS011;12243;42.708;23.310;2023-05-10T13:09:41;8.47;;;6.50;;
16450;SDS011;12243;42.708;23.310;2023-05-10T13:12:08;12.73;;;9.13;;
16450;SDS011;12243;42.708;23.310;2023-05-10T13:14:35;7.43;;;5.90;;
16450;SDS011;12243;42.708;23.310;2023-05-10T13:17:02;10.37;;;7.57;;
16450;SDS011;12243;42.708;23.310;2023-05-10T13:19:29;9.87;;;6.83;;
16450;SDS011;12243;42.708;23.310;2023-05-10T13:21:56;8.80;;;6.90;;
16450;SDS011;12243;42.708;23.310;2023-05-10T13:24:24;8.73;;;6.93;;
16450;SDS011;12243;42.708;23.310;2023-05-10T13:26:51;8.00;;;7.17;;
16450;SDS011;12243;42.708;23.310;2023-05-10T13:29:18;6.83;;;5.77;;
16450;SDS011;12243;42.708;23.310;2023-05-10T13:31:46;12.70;;;9.27;;
16450;SDS011;12243;42.708;23.310;2023-05-10T13:34:13;10.23;;;8.50;;
16450;SDS011;12243;42.708;23.310;2023-05-10T13:36:39;7.80;;;7.13;;
16450;SDS011;12243;42.708;23.310;2023-05-10T13:39:07;10.03;;;6.10;;
16450;SDS011;12243;42.708;23.310;2023-05-10T13:41:35;10.27;;;6.77;;
16450;SDS011;12243;42.708;23.310;2023-05-10T13:44:02;7.77;;;6.63;;
16450;SDS011;12243;42.708;23.310;2023-05-10T13:46:29;7.30;;;6.60;;
16450;SDS011;12243;42.708;23.310;2023-05-10T13:48:56;6.73;;;6.03;;
16450;SDS011;12243;42.708;23.310;2023-05-10T13:51:23;6.20;;;5.70;;
16450;SDS011;12243;42.708;23.310;2023-05-10T13:53:50;6.30;;;5.80;;
16450;SDS011;12243;42.708;23.310;2023-05-10T13:56:17;6.90;;;6.20;;
16450;SDS011;12243;42.708;23.310;2023-05-10T13:58:45;6.90;;;6.30;;
16450;SDS011;12243;42.708;23.310;2023-05-10T14:01:12;6.17;;;5.67;;
16450;SDS011;12243;42.708;23.310;2023-05-10T14:03:39;7.80;;;5.93;;
16450;SDS011;12243;42.708;23.310;2023-05-10T14:06:06;6.20;;;5.70;;
16450;SDS011;12243;42.708;23.310;2023-05-10T14:08:34;8.07;;;5.83;;
16450;SDS011;12243;42.708;23.310;2023-05-10T14:11:02;7.70;;;6.13;;
16450;SDS011;12243;42.708;23.310;2023-05-10T14:13:28;7.10;;;6.40;;
16450;SDS011;12243;42.708;23.310;2023-05-10T14:15:57;7.43;;;6.37;;
16450;SDS011;12243;42.708;23.310;2023-05-10T14:18:25;9.97;;;6.53;;
16450;SDS011;12243;42.708;23.310;2023-05-10T14:20:53;13.80;;;9.30;;
16450;SDS011;12243;42.708;23.310;2023-05-10T14:23:21;8.47;;;7.53;;
16450;SDS011;12243;42.708;23.310;2023-05-10T14:25:49;10.90;;;7.93;;
16450;SDS011;12243;42.708;23.310;2023-05-10T14:28:16;10.43;;;7.00;;
16450;SDS011;12243;42.708;23.310;2023-05-10T14:30:45;9.73;;;6.73;;
16450;SDS011;12243;42.708;23.310;2023-05-10T14:33:14;8.63;;;6.27;;
16450;SDS011;12243;42.708;23.310;2023-05-10T14:35:41;9.57;;;7.00;;
16450;SDS011;12243;42.708;23.310;2023-05-10T14:38:08;12.00;;;6.53;;
16450;SDS011;12243;42.708;23.310;2023-05-10T14:40:35;6.93;;;6.27;;
16450;SDS011;12243;42.708;23.310;2023-05-10T14:43:02;7.90;;;6.70;;